Time;durP1;ratioP1;P1;durP2;ratioP2;P2;SDS_P1;SDS_P2;PMS_P1;PMS_P2;Temp;Humidity;BMP_temperature;BMP_pressure;BME280_temperature;BME280_humidity;BME280_pressure;Samples;Min_cycle;Max_cycle;Signal;HPM_P1;HPM_P2
2022/08/29 00:01:34;;;;;;;2.35;1.50;;;17.00;99.90;;;;;;5042276;28;20110;-58
2022/08/29 00:04:01;;;;;;;3.38;1.70;;;17.00;99.90;;;;;;5059388;28;20025;-58
2022/08/29 00:06:27;;;;;;;2.53;1.65;;;16.90;99.90;;;;;;5059729;28;20075;-59
2022/08/29 00:08:54;;;;;;;3.28;1.60;;;17.00;99.90;;;;;;5058533;28;20278;-59
2022/08/29 00:11:22;;;;;;;4.35;1.83;;;17.00;99.90;;;;;;5059176;28;20382;-59
2022/08/29 00:13:48;;;;;;;2.42;1.50;;;17.00;99.90;;;;;;5059256;28;20060;-57
2022/08/29 00:16:15;;;;;;;3.00;1.55;;;17.00;99.90;;;;;;5059279;28;20431;-58
2022/08/29 00:18:41;;;;;;;3.63;1.50;;;17.00;99.90;;;;;;5059100;28;20061;-58
2022/08/29 00:21:07;;;;;;;4.32;1.63;;;17.00;99.90;;;;;;5041816;28;20090;-58
2022/08/29 00:23:33;;;;;;;5.18;1.70;;;17.10;99.90;;;;;;5058941;28;20029;-58
2022/08/29 00:25:59;;;;;;;2.80;1.70;;;16.90;99.90;;;;;;5059045;28;20159;-58
2022/08/29 00:28:28;;;;;;;3.15;1.48;;;16.80;99.90;;;;;;5059018;28;20112;-57
2022/08/29 00:30:54;;;;;;;2.90;1.58;;;16.80;99.90;;;;;;5058895;28;20407;-57
2022/08/29 00:33:20;;;;;;;2.00;1.60;;;16.70;99.90;;;;;;5058845;28;20115;-58
2022/08/29 00:35:46;;;;;;;2.70;1.65;;;16.70;99.90;;;;;;5058944;28;20083;-57
2022/08/29 00:38:15;;;;;;;5.95;1.52;;;16.70;99.90;;;;;;5058779;28;20044;-58
2022/08/29 00:40:58;;;;;;;4.97;1.60;;;16.70;99.90;;;;;;5058712;28;20045;-57
2022/08/29 00:43:28;;;;;;;3.10;1.95;;;16.80;99.90;;;;;;5059223;28;20121;-58
2022/08/29 00:46:53;;;;;;;4.43;1.80;;;16.70;99.90;;;;;;5058665;28;20017;-57
2022/08/29 00:49:33;;;;;;;8.70;2.00;;;16.60;99.90;;;;;;5037673;28;20043;-58
2022/08/29 00:52:11;;;;;;;3.35;1.98;;;16.60;99.90;;;;;;5058539;28;20028;-58
2022/08/29 00:54:38;;;;;;;5.18;2.05;;;16.50;99.90;;;;;;5058475;28;20060;-59
2022/08/29 00:57:04;;;;;;;2.92;1.95;;;16.50;99.90;;;;;;5058508;28;20087;-58
2022/08/29 00:59:38;;;;;;;5.72;1.90;;;16.40;99.90;;;;;;5040964;28;20426;-58
2022/08/29 01:02:09;;;;;;;7.68;2.10;;;16.40;99.90;;;;;;5058314;28;20033;-59
2022/08/29 01:04:38;;;;;;;4.85;2.00;;;16.40;99.90;;;;;;5058263;28;20108;-58
2022/08/29 01:07:05;;;;;;;3.42;2.30;;;16.30;99.90;;;;;;5058292;28;20029;-58
2022/08/29 01:09:42;;;;;;;3.42;2.10;;;16.40;99.90;;;;;;5040613;28;20025;-58
2022/08/29 01:12:18;;;;;;;6.50;2.17;;;16.40;99.90;;;;;;5058271;28;20044;-58
2022/08/29 01:14:51;;;;;;;3.65;2.30;;;16.50;99.90;;;;;;5058113;28;20040;-58
2022/08/29 01:17:23;;;;;;;4.28;2.30;;;16.40;99.90;;;;;;5040725;28;20045;-59
2022/08/29 01:19:58;;;;;;;4.15;1.80;;;16.40;99.90;;;;;;5058362;28;20355;-58
2022/08/29 01:22:36;;;;;;;5.35;2.28;;;16.30;99.90;;;;;;5040527;28;20072;-58
2022/08/29 01:25:07;;;;;;;5.60;2.22;;;16.30;99.90;;;;;;5057899;28;20338;-58
2022/08/29 01:27:40;;;;;;;3.47;2.40;;;16.20;99.90;;;;;;5058484;28;20043;-58
2022/08/29 01:30:10;;;;;;;4.65;2.13;;;16.20;99.90;;;;;;5057339;28;20029;-58
2022/08/29 01:32:36;;;;;;;4.03;2.30;;;16.10;99.90;;;;;;5058101;28;20352;-58
2022/08/29 01:35:04;;;;;;;3.10;2.08;;;16.20;99.90;;;;;;5057846;28;20124;-59
2022/08/29 01:37:32;;;;;;;3.25;2.00;;;16.20;99.90;;;;;;5057634;28;20419;-58
2022/08/29 01:39:58;;;;;;;4.65;2.30;;;16.20;99.90;;;;;;5057785;28;20051;-58
2022/08/29 01:42:24;;;;;;;3.03;1.88;;;16.20;99.90;;;;;;5058030;28;20037;-59
2022/08/29 01:44:56;;;;;;;5.47;2.22;;;16.00;99.90;;;;;;5057551;28;20039;-58
2022/08/29 01:47:28;;;;;;;6.43;2.20;;;15.90;99.90;;;;;;5023758;28;20025;-58
2022/08/29 01:49:54;;;;;;;4.90;2.10;;;15.90;99.90;;;;;;5057725;28;20293;-58
2022/08/29 01:52:21;;;;;;;7.13;2.38;;;16.00;99.90;;;;;;5057460;28;20025;-59
2022/08/29 01:54:50;;;;;;;3.20;2.20;;;16.00;99.90;;;;;;5057369;28;20033;-58
2022/08/29 01:57:16;;;;;;;4.15;2.40;;;15.90;99.90;;;;;;5056654;28;20033;-58
2022/08/29 01:59:46;;;;;;;4.90;2.20;;;15.80;99.90;;;;;;5057198;28;20044;-58
2022/08/29 02:02:27;;;;;;;3.38;2.17;;;15.90;99.90;;;;;;5039759;28;20047;-58
2022/08/29 02:04:57;;;;;;;3.90;2.08;;;16.00;99.90;;;;;;5056908;28;20045;-58
2022/08/29 02:07:28;;;;;;;5.22;2.38;;;15.90;99.90;;;;;;5057153;28;20119;-58
2022/08/29 02:09:54;;;;;;;4.65;2.20;;;15.80;99.90;;;;;;5057064;28;20045;-59
2022/08/29 02:12:20;;;;;;;5.38;2.50;;;15.90;99.90;;;;;;5057085;28;20386;-59
2022/08/29 02:14:47;;;;;;;4.50;2.30;;;15.80;99.90;;;;;;5057054;28;20118;-58
2022/08/29 02:17:13;;;;;;;6.43;2.30;;;15.80;99.90;;;;;;5057007;28;20041;-59
2022/08/29 02:19:39;;;;;;;5.15;2.20;;;15.70;99.90;;;;;;5056960;28;20033;-58
2022/08/29 02:22:06;;;;;;;5.35;2.10;;;15.80;99.90;;;;;;5056892;28;20401;-58
2022/08/29 02:24:32;;;;;;;5.78;2.05;;;15.80;99.90;;;;;;5057134;28;20059;-58
2022/08/29 02:26:58;;;;;;;3.97;2.10;;;15.90;99.90;;;;;;5056912;28;20341;-59
2022/08/29 02:29:25;;;;;;;2.67;2.08;;;16.00;99.90;;;;;;5056735;28;20071;-59
2022/08/29 02:31:51;;;;;;;4.07;2.47;;;16.00;99.90;;;;;;5056824;28;20040;-56
2022/08/29 02:34:18;;;;;;;4.82;2.70;;;16.00;99.90;;;;;;5057168;28;20108;-57
2022/08/29 02:36:44;;;;;;;4.63;2.80;;;15.90;99.90;;;;;;5039601;28;20162;-57
2022/08/29 02:39:10;;;;;;;4.53;2.78;;;15.90;99.90;;;;;;5056740;28;20037;-60
2022/08/29 02:41:36;;;;;;;3.55;2.42;;;16.00;99.90;;;;;;5055769;28;20044;-58
2022/08/29 02:44:02;;;;;;;4.65;2.35;;;15.90;99.90;;;;;;5056697;28;20032;-58
2022/08/29 02:46:31;;;;;;;4.38;2.28;;;15.80;99.90;;;;;;5056707;28;20082;-58
2022/08/29 02:48:57;;;;;;;4.50;2.33;;;15.90;99.90;;;;;;5056719;28;20108;-57
2022/08/29 02:51:29;;;;;;;5.07;3.00;;;15.90;99.90;;;;;;5039837;28;20041;-58
2022/08/29 02:53:55;;;;;;;6.03;2.45;;;15.90;99.90;;;;;;5056640;28;20044;-58
2022/08/29 02:56:24;;;;;;;6.10;2.60;;;16.00;99.90;;;;;;5056617;28;20044;-58
2022/08/29 02:58:53;;;;;;;5.05;2.50;;;15.90;99.90;;;;;;5039422;28;20029;-59
2022/08/29 03:01:21;;;;;;;4.25;2.35;;;16.00;99.90;;;;;;5056486;28;20381;-57
2022/08/29 03:03:47;;;;;;;5.93;2.72;;;15.90;99.90;;;;;;5039272;28;20040;-58
2022/08/29 03:06:13;;;;;;;4.18;2.38;;;15.90;99.90;;;;;;5056530;28;20041;-57
2022/08/29 03:08:39;;;;;;;4.70;2.38;;;15.90;99.90;;;;;;5056461;28;20111;-57
2022/08/29 03:11:05;;;;;;;9.73;2.95;;;15.80;99.90;;;;;;5039057;28;20057;-57
2022/08/29 03:13:32;;;;;;;5.25;2.72;;;15.70;99.90;;;;;;5056884;28;20036;-59
2022/08/29 03:16:02;;;;;;;8.43;2.67;;;15.90;99.90;;;;;;5056414;28;20048;-58
2022/08/29 03:18:28;;;;;;;3.58;2.63;;;15.80;99.90;;;;;;5056431;28;20033;-58
2022/08/29 03:20:54;;;;;;;3.17;2.60;;;15.80;99.90;;;;;;5056957;28;20053;-58
2022/08/29 03:23:19;;;;;;;6.90;2.70;;;15.80;99.90;;;;;;5038805;28;20066;-57
2022/08/29 03:25:45;;;;;;;5.40;2.80;;;15.80;99.90;;;;;;5056586;28;20031;-57
2022/08/29 03:28:11;;;;;;;3.53;2.40;;;15.70;99.90;;;;;;5039626;28;20376;-57
2022/08/29 03:30:37;;;;;;;6.25;2.67;;;15.70;99.90;;;;;;5056284;28;20037;-58
2022/08/29 03:33:04;;;;;;;7.65;3.17;;;15.60;99.90;;;;;;5056238;28;20431;-58
2022/08/29 03:35:32;;;;;;;4.97;2.85;;;15.60;99.90;;;;;;5056202;28;20120;-57
2022/08/29 03:37:58;;;;;;;7.78;3.10;;;15.60;99.90;;;;;;5056334;28;20119;-57
2022/08/29 03:40:25;;;;;;;8.27;3.15;;;15.60;99.90;;;;;;5038967;28;20045;-57
2022/08/29 03:42:52;;;;;;;7.32;2.85;;;15.60;99.90;;;;;;5056102;28;20350;-58
2022/08/29 03:45:19;;;;;;;5.10;3.22;;;15.60;99.90;;;;;;5056145;28;20025;-58
2022/08/29 03:47:44;;;;;;;8.48;3.20;;;15.60;99.90;;;;;;5056263;28;20025;-58
2022/08/29 03:50:13;;;;;;;7.40;3.70;;;15.60;99.90;;;;;;5038925;28;20131;-61
2022/08/29 03:52:41;;;;;;;5.50;3.55;;;15.60;99.90;;;;;;5056267;28;20052;-58
2022/08/29 03:55:08;;;;;;;6.97;3.10;;;15.60;99.90;;;;;;5059100;28;20044;-58
2022/08/29 03:57:34;;;;;;;10.00;3.28;;;15.50;99.90;;;;;;5059594;28;20120;-60
2022/08/29 04:00:09;;;;;;;5.80;3.47;;;15.50;99.90;;;;;;5059469;28;20128;-58
2022/08/29 04:02:38;;;;;;;7.47;3.90;;;15.50;99.90;;;;;;5059450;28;20037;-58
2022/08/29 04:05:08;;;;;;;7.57;3.63;;;15.50;99.90;;;;;;5059359;28;20091;-58
2022/08/29 04:07:49;;;;;;;4.82;3.35;;;15.40;99.90;;;;;;5042094;28;20116;-59
2022/08/29 04:10:25;;;;;;;6.65;3.63;;;15.50;99.90;;;;;;5059160;28;20063;-59
2022/08/29 04:12:52;;;;;;;8.07;3.72;;;15.50;99.90;;;;;;5042093;28;20415;-59
2022/08/29 04:15:18;;;;;;;7.88;3.72;;;15.40;99.90;;;;;;5059290;28;20040;-59
2022/08/29 04:17:44;;;;;;;4.13;3.22;;;15.40;99.90;;;;;;5059293;28;20047;-59
2022/08/29 04:20:11;;;;;;;6.60;4.00;;;15.30;99.90;;;;;;5041864;28;20300;-59
2022/08/29 04:22:39;;;;;;;9.32;4.35;;;15.40;99.90;;;;;;5059025;28;20041;-59
2022/08/29 04:25:08;;;;;;;6.85;3.78;;;15.50;99.90;;;;;;5041836;28;20039;-59
2022/08/29 04:27:37;;;;;;;5.95;3.78;;;15.60;99.90;;;;;;5059002;28;20145;-59
2022/08/29 04:30:09;;;;;;;9.05;3.90;;;15.50;99.90;;;;;;5058964;28;20128;-59
2022/08/29 04:32:34;;;;;;;5.82;3.88;;;15.50;99.90;;;;;;5058921;28;20087;-59
2022/08/29 04:35:00;;;;;;;9.05;4.10;;;15.50;99.90;;;;;;5041437;28;20060;-59
2022/08/29 04:37:30;;;;;;;8.88;4.47;;;15.40;99.90;;;;;;5058868;28;20087;-59
2022/08/29 04:40:00;;;;;;;4.82;3.80;;;15.40;99.90;;;;;;5042054;28;20281;-59
2022/08/29 04:42:26;;;;;;;9.88;4.78;;;15.30;99.90;;;;;;5058775;28;20072;-59
2022/08/29 04:44:52;;;;;;;8.65;4.10;;;15.40;99.90;;;;;;5041535;28;20063;-59
2022/08/29 04:47:21;;;;;;;6.75;4.15;;;15.40;99.90;;;;;;5041330;28;20059;-59
2022/08/29 04:49:48;;;;;;;10.82;4.22;;;15.40;99.90;;;;;;5058609;28;20033;-59
2022/08/29 04:52:14;;;;;;;9.60;4.38;;;15.40;99.90;;;;;;5058613;28;20404;-59
2022/08/29 04:54:40;;;;;;;7.68;4.45;;;15.40;99.90;;;;;;5058525;28;20345;-59
2022/08/29 04:57:06;;;;;;;5.63;4.13;;;15.40;99.90;;;;;;5058329;28;20061;-60
2022/08/29 04:59:35;;;;;;;10.57;4.10;;;15.40;99.90;;;;;;5058095;28;20115;-59
2022/08/29 05:02:04;;;;;;;7.60;4.32;;;15.50;99.90;;;;;;5058084;28;20121;-59
2022/08/29 05:04:30;;;;;;;11.90;4.93;;;15.40;99.90;;;;;;5057352;28;20029;-59
2022/08/29 05:06:56;;;;;;;8.07;4.95;;;15.50;99.90;;;;;;5058185;28;20049;-59
2022/08/29 05:09:22;;;;;;;8.13;4.47;;;15.50;99.90;;;;;;5058229;28;20347;-59
2022/08/29 05:11:48;;;;;;;8.18;4.53;;;15.50;99.90;;;;;;5057873;28;20064;-59
2022/08/29 05:14:14;;;;;;;9.98;4.65;;;15.50;99.90;;;;;;5057957;28;20036;-59
2022/08/29 05:16:40;;;;;;;7.22;4.50;;;15.50;99.90;;;;;;5058682;28;20348;-59
2022/08/29 05:19:07;;;;;;;8.75;4.75;;;15.50;99.90;;;;;;5058035;28;20033;-59
2022/08/29 05:21:36;;;;;;;11.07;5.10;;;15.50;99.90;;;;;;5057928;28;20412;-59
2022/08/29 05:24:08;;;;;;;6.75;4.65;;;15.60;99.90;;;;;;5040516;28;20065;-59
2022/08/29 05:26:38;;;;;;;6.57;4.57;;;15.60;99.90;;;;;;5040735;28;20029;-60
2022/08/29 05:29:06;;;;;;;7.65;4.88;;;15.60;99.90;;;;;;5057804;28;20020;-59
2022/08/29 05:31:32;;;;;;;8.88;5.13;;;15.70;99.90;;;;;;5057760;28;20021;-59
2022/08/29 05:33:59;;;;;;;9.32;4.55;;;15.80;99.90;;;;;;5058000;28;20043;-60
2022/08/29 05:36:25;;;;;;;7.78;4.95;;;15.80;99.90;;;;;;5058256;28;20025;-59
2022/08/29 05:38:51;;;;;;;17.17;5.53;;;15.80;99.90;;;;;;5058009;28;20040;-60
2022/08/29 05:41:17;;;;;;;17.40;5.38;;;15.80;99.90;;;;;;5057244;28;20424;-60
2022/08/29 05:43:44;;;;;;;17.30;5.78;;;15.80;99.90;;;;;;5057352;28;20041;-59
2022/08/29 05:46:10;;;;;;;10.65;5.53;;;15.90;99.90;;;;;;5023771;28;20052;-59
2022/08/29 05:48:40;;;;;;;14.45;4.93;;;15.90;99.90;;;;;;5057518;28;20045;-60
2022/08/29 05:51:12;;;;;;;8.32;4.90;;;16.00;99.90;;;;;;5057470;28;20096;-58
2022/08/29 05:53:38;;;;;;;11.48;5.55;;;16.00;99.90;;;;;;5057460;28;20041;-58
2022/08/29 05:56:04;;;;;;;9.73;5.13;;;16.00;99.90;;;;;;5040154;28;20033;-59
2022/08/29 05:58:30;;;;;;;8.88;5.00;;;16.00;99.90;;;;;;5057262;28;20101;-59
2022/08/29 06:00:56;;;;;;;8.70;5.53;;;16.10;99.90;;;;;;5057293;28;20400;-59
2022/08/29 06:03:26;;;;;;;9.52;5.93;;;16.00;99.90;;;;;;5057702;28;20036;-58
2022/08/29 06:05:52;;;;;;;8.15;5.20;;;16.00;99.90;;;;;;5057169;28;20036;-58
2022/08/29 06:08:19;;;;;;;8.52;5.25;;;16.00;99.90;;;;;;5057214;28;20089;-59
2022/08/29 06:10:48;;;;;;;8.57;5.28;;;16.10;99.90;;;;;;5038923;28;20040;-59
2022/08/29 06:13:14;;;;;;;9.88;5.80;;;16.20;99.90;;;;;;5057063;28;20047;-59
2022/08/29 06:15:44;;;;;;;9.93;5.50;;;16.20;99.90;;;;;;5056874;28;20322;-59
2022/08/29 06:18:10;;;;;;;10.40;5.30;;;16.20;99.90;;;;;;5057029;28;20033;-58
2022/08/29 06:20:37;;;;;;;7.40;5.20;;;16.20;99.90;;;;;;5056848;28;20308;-59
2022/08/29 06:23:07;;;;;;;11.05;5.32;;;16.30;99.90;;;;;;5057063;28;20270;-58
2022/08/29 06:25:33;;;;;;;11.30;4.97;;;16.30;99.90;;;;;;5057151;28;20112;-58
2022/08/29 06:28:02;;;;;;;12.88;4.88;;;16.40;99.90;;;;;;5039734;28;20044;-58
2022/08/29 06:30:32;;;;;;;10.18;5.07;;;16.50;99.90;;;;;;5056857;28;20040;-58
2022/08/29 06:32:59;;;;;;;14.27;5.13;;;16.50;99.90;;;;;;5056828;28;20025;-58
2022/08/29 06:35:26;;;;;;;14.35;5.40;;;16.60;99.90;;;;;;5039688;28;20025;-58
2022/08/29 06:37:51;;;;;;;10.60;4.72;;;16.70;99.90;;;;;;5056862;28;20408;-58
2022/08/29 06:40:20;;;;;;;8.27;4.63;;;16.80;99.90;;;;;;5039423;28;20033;-58
2022/08/29 06:42:46;;;;;;;12.23;5.45;;;16.90;99.90;;;;;;5039262;28;20037;-59
2022/08/29 06:45:12;;;;;;;8.05;4.50;;;17.10;99.90;;;;;;5056647;28;20098;-59
2022/08/29 06:47:38;;;;;;;9.35;5.18;;;17.20;99.90;;;;;;5039948;28;20278;-59
2022/08/29 06:50:05;;;;;;;9.70;4.68;;;17.20;99.90;;;;;;5056613;28;20046;-59
2022/08/29 06:52:36;;;;;;;8.27;4.25;;;17.20;99.90;;;;;;5023877;28;20052;-59
2022/08/29 06:55:10;;;;;;;11.02;4.75;;;17.20;99.90;;;;;;5056560;28;20082;-59
2022/08/29 06:57:44;;;;;;;13.32;4.53;;;17.20;99.90;;;;;;5056717;28;20278;-59
2022/08/29 07:00:14;;;;;;;7.07;4.07;;;17.20;99.90;;;;;;5039704;28;20032;-59
2022/08/29 07:02:40;;;;;;;8.43;4.18;;;17.20;99.90;;;;;;5056473;28;20209;-59
2022/08/29 07:05:07;;;;;;;9.85;4.78;;;17.20;99.90;;;;;;5056532;28;20079;-59
2022/08/29 07:07:33;;;;;;;7.30;4.20;;;17.00;99.90;;;;;;5056547;28;20324;-59
2022/08/29 07:10:00;;;;;;;7.65;4.32;;;17.20;99.90;;;;;;5056222;28;20060;-59
2022/08/29 07:12:25;;;;;;;9.57;3.97;;;17.10;99.90;;;;;;5056488;28;20037;-60
2022/08/29 07:14:51;;;;;;;8.18;4.13;;;17.10;99.90;;;;;;5056291;28;20091;-58
2022/08/29 07:17:19;;;;;;;7.38;4.45;;;17.30;99.90;;;;;;5056921;28;20040;-59
2022/08/29 07:19:46;;;;;;;8.60;4.10;;;17.40;99.90;;;;;;5056282;28;20044;-59
2022/08/29 07:22:12;;;;;;;7.60;3.65;;;17.50;99.90;;;;;;5056597;28;20072;-59
2022/08/29 07:24:37;;;;;;;12.30;4.07;;;17.40;99.90;;;;;;5056530;28;20084;-59
2022/08/29 07:27:03;;;;;;;6.85;4.15;;;17.40;99.90;;;;;;5056360;28;20037;-58
2022/08/29 07:29:29;;;;;;;7.00;3.90;;;17.50;99.90;;;;;;5059308;28;20032;-59
2022/08/29 07:31:55;;;;;;;7.03;3.60;;;17.40;99.90;;;;;;5060421;28;20045;-59
2022/08/29 07:34:21;;;;;;;9.70;3.83;;;17.50;99.90;;;;;;5059918;28;20040;-59
2022/08/29 07:36:47;;;;;;;9.18;3.78;;;17.50;99.90;;;;;;5042700;28;20108;-59
2022/08/29 07:39:17;;;;;;;7.22;3.92;;;17.60;99.90;;;;;;5059858;28;20317;-58
2022/08/29 07:41:47;;;;;;;8.13;4.30;;;17.60;99.90;;;;;;5059864;28;20037;-58
2022/08/29 07:44:13;;;;;;;7.30;3.80;;;17.60;99.90;;;;;;5059947;28;20270;-58
2022/08/29 07:46:40;;;;;;;7.25;3.92;;;17.50;99.90;;;;;;5060058;28;20328;-59
2022/08/29 07:49:06;;;;;;;11.90;3.63;;;17.40;99.90;;;;;;5059762;28;20037;-58
2022/08/29 07:51:32;;;;;;;10.40;3.80;;;17.50;99.90;;;;;;5059711;28;20032;-59
2022/08/29 07:53:58;;;;;;;9.80;4.15;;;17.50;99.90;;;;;;5059655;28;20032;-59
2022/08/29 07:56:38;;;;;;;10.52;3.63;;;17.50;99.90;;;;;;5026444;28;20040;-59
2022/08/29 07:59:06;;;;;;;6.88;4.00;;;17.60;99.90;;;;;;5042332;28;20048;-58
2022/08/29 08:01:32;;;;;;;15.40;4.63;;;17.60;99.90;;;;;;5042215;28;20036;-59
2022/08/29 08:04:01;;;;;;;9.50;3.50;;;17.60;99.90;;;;;;5059410;28;20389;-58
2022/08/29 08:06:27;;;;;;;6.93;3.33;;;17.70;99.90;;;;;;5059366;28;20113;-58
2022/08/29 08:08:54;;;;;;;8.18;3.53;;;17.80;99.90;;;;;;5059308;28;20033;-61
2022/08/29 08:11:21;;;;;;;5.28;3.03;;;17.80;99.90;;;;;;5059189;28;20045;-59
2022/08/29 08:13:52;;;;;;;5.18;2.92;;;17.90;99.90;;;;;;5059313;28;20025;-60
2022/08/29 08:16:20;;;;;;;9.98;3.35;;;17.80;99.90;;;;;;5041771;28;20110;-59
2022/08/29 08:18:47;;;;;;;6.82;3.22;;;17.90;99.90;;;;;;5059160;28;20041;-58
2022/08/29 08:21:14;;;;;;;5.07;3.33;;;18.10;99.90;;;;;;5059066;28;20112;-58
2022/08/29 08:23:41;;;;;;;8.30;3.03;;;18.20;99.90;;;;;;5059096;28;20036;-59
2022/08/29 08:26:09;;;;;;;9.80;3.20;;;18.30;99.90;;;;;;5059305;28;20258;-58
2022/08/29 08:28:35;;;;;;;8.25;3.17;;;18.40;99.90;;;;;;5058789;28;20037;-58
2022/08/29 08:31:03;;;;;;;7.70;3.22;;;18.30;99.90;;;;;;5058970;28;20067;-59
2022/08/29 08:33:30;;;;;;;10.68;3.25;;;18.20;99.90;;;;;;5058889;28;20305;-57
2022/08/29 08:35:56;;;;;;;7.28;3.08;;;18.30;99.90;;;;;;5058897;28;20033;-59
2022/08/29 08:38:22;;;;;;;6.38;2.83;;;18.60;99.90;;;;;;5059383;28;20041;-58
2022/08/29 08:41:05;;;;;;;6.97;2.90;;;18.80;99.90;;;;;;5057562;28;20106;-58
2022/08/29 08:43:50;;;;;;;6.03;2.75;;;18.80;99.90;;;;;;5059217;28;20036;-59
2022/08/29 08:46:46;;;;;;;8.68;2.97;;;18.90;99.90;;;;;;5058772;28;20021;-59
2022/08/29 08:49:29;;;;;;;10.48;3.03;;;19.10;99.90;;;;;;5058978;28;20285;-58
2022/08/29 08:52:02;;;;;;;10.20;3.10;;;19.10;99.90;;;;;;5058792;28;20064;-60
2022/08/29 08:54:33;;;;;;;5.20;2.95;;;19.30;99.90;;;;;;5058538;28;20041;-59
2022/08/29 08:57:11;;;;;;;7.93;2.90;;;19.40;99.90;;;;;;5059135;28;20040;-58
2022/08/29 08:59:42;;;;;;;5.78;2.70;;;19.40;99.90;;;;;;5058435;28;20048;-58
2022/08/29 09:02:33;;;;;;;6.38;2.58;;;19.30;99.90;;;;;;5058468;28;20033;-59
2022/08/29 09:05:16;;;;;;;9.38;2.70;;;19.40;99.90;;;;;;5058290;28;20029;-59
2022/08/29 09:08:11;;;;;;;4.82;2.42;;;19.60;99.90;;;;;;5058347;28;20025;-59
2022/08/29 09:10:36;;;;;;;5.03;2.63;;;20.00;99.90;;;;;;5058073;28;20451;-59
2022/08/29 09:13:20;;;;;;;4.97;2.42;;;20.20;99.90;;;;;;5058163;28;20336;-59
2022/08/29 09:15:50;;;;;;;5.38;2.58;;;20.60;99.90;;;;;;5040805;28;20131;-59
2022/08/29 09:18:22;;;;;;;6.97;2.58;;;20.90;99.90;;;;;;5058149;28;20033;-59
2022/08/29 09:20:49;;;;;;;3.97;2.50;;;20.60;99.90;;;;;;5058087;28;20440;-59
2022/08/29 09:23:27;;;;;;;7.32;2.65;;;20.30;99.90;;;;;;5057955;28;20033;-59
2022/08/29 09:25:53;;;;;;;5.82;2.92;;;20.30;99.90;;;;;;5058099;28;20446;-59
2022/08/29 09:28:20;;;;;;;3.65;2.38;;;20.10;99.90;;;;;;5040683;28;20415;-59
2022/08/29 09:31:23;;;;;;;3.92;2.20;;;20.20;99.90;;;;;;5040595;28;20021;-59
2022/08/29 09:33:59;;;;;;;5.28;2.17;;;20.30;99.90;;;;;;5058094;28;20040;-59
2022/08/29 09:36:38;;;;;;;8.27;2.60;;;20.40;99.90;;;;;;5040270;28;20389;-59
2022/08/29 09:39:28;;;;;;;4.85;2.45;;;20.60;99.90;;;;;;5057768;28;20105;-59
2022/08/29 09:42:16;;;;;;;7.55;2.50;;;20.50;99.90;;;;;;5057219;28;20067;-59
2022/08/29 09:44:53;;;;;;;7.25;2.15;;;20.40;99.90;;;;;;5057546;28;20297;-59
2022/08/29 09:47:31;;;;;;;4.68;2.38;;;20.40;99.90;;;;;;5057637;28;20020;-58
2022/08/29 09:50:02;;;;;;;4.45;1.83;;;20.30;99.90;;;;;;5057763;28;20025;-58
2022/08/29 09:52:28;;;;;;;7.05;2.05;;;20.50;99.90;;;;;;5057115;28;20036;-59
2022/08/29 09:54:58;;;;;;;3.85;2.10;;;20.90;99.90;;;;;;5057390;28;20033;-60
2022/08/29 09:57:26;;;;;;;8.02;2.50;;;21.10;99.90;;;;;;5057395;28;20116;-59
2022/08/29 10:00:11;;;;;;;4.90;2.53;;;21.40;99.90;;;;;;5057453;28;20130;-59
2022/08/29 10:02:48;;;;;;;3.08;1.92;;;21.30;99.90;;;;;;5057238;28;20393;-59
2022/08/29 10:05:34;;;;;;;3.47;2.00;;;21.60;99.90;;;;;;5057191;28;20040;-58
2022/08/29 10:08:05;;;;;;;5.82;1.90;;;22.10;99.90;;;;;;5039912;28;20341;-58
2022/08/29 10:10:35;;;;;;;6.03;2.30;;;22.00;99.90;;;;;;5056848;28;20131;-58
2022/08/29 10:13:12;;;;;;;7.68;3.03;;;22.00;99.90;;;;;;5057091;28;20062;-59
2022/08/29 10:16:00;;;;;;;5.57;2.20;;;21.70;99.90;;;;;;5057064;28;20037;-59
2022/08/29 10:18:57;;;;;;;4.13;1.90;;;21.50;99.90;;;;;;5056969;28;20025;-59
2022/08/29 10:21:47;;;;;;;4.28;2.00;;;21.70;99.90;;;;;;5057020;28;20147;-59
2022/08/29 10:24:45;;;;;;;5.68;2.30;;;21.60;99.90;;;;;;5056907;28;20029;-59
2022/08/29 10:27:33;;;;;;;4.90;2.10;;;21.90;99.90;;;;;;5017615;28;20041;-59
2022/08/29 10:30:14;;;;;;;5.38;2.40;;;22.10;99.90;;;;;;5056845;28;20028;-59
2022/08/29 10:32:55;;;;;;;5.32;2.25;;;22.30;99.90;;;;;;5056838;28;20213;-59
2022/08/29 10:35:34;;;;;;;5.60;2.00;;;22.30;99.90;;;;;;5056598;28;20090;-59
2022/08/29 10:38:22;;;;;;;3.70;2.22;;;22.40;99.90;;;;;;5039382;28;20053;-59
2022/08/29 10:40:55;;;;;;;4.93;1.88;;;22.70;99.90;;;;;;5056698;28;20029;-59
2022/08/29 10:43:30;;;;;;;6.07;2.22;;;22.70;99.90;;;;;;5056741;28;20464;-59
2022/08/29 10:46:06;;;;;;;4.80;2.30;;;22.80;99.90;;;;;;5056836;28;20029;-59
2022/08/29 10:48:57;;;;;;;5.70;2.10;;;23.80;99.90;;;;;;5056663;28;20297;-59
2022/08/29 10:51:55;;;;;;;4.53;2.10;;;25.00;99.90;;;;;;5056505;28;20029;-59
2022/08/29 10:54:46;;;;;;;5.65;2.10;;;25.90;99.90;;;;;;5020573;28;20044;-59
2022/08/29 10:57:25;;;;;;;3.80;2.10;;;26.30;99.90;;;;;;5056661;28;20093;-59
2022/08/29 10:59:58;;;;;;;3.58;2.35;;;26.40;99.90;;;;;;5056799;28;20115;-59
2022/08/29 11:03:00;;;;;;;3.50;2.22;;;26.70;99.90;;;;;;5056486;28;20055;-60
2022/08/29 11:05:34;;;;;;;3.83;2.22;;;26.40;99.90;;;;;;4973189;28;20054;-59
2022/08/29 11:08:18;;;;;;;5.32;2.40;;;26.40;99.90;;;;;;5061241;28;20059;-59
2022/08/29 11:10:51;;;;;;;4.55;2.78;;;26.20;99.90;;;;;;5060437;28;20044;-59
2022/08/29 11:13:37;;;;;;;5.57;2.50;;;26.80;99.90;;;;;;5060895;28;20024;-59
2022/08/29 11:16:25;;;;;;;5.90;2.42;;;28.10;99.90;;;;;;5060260;28;20411;-59
2022/08/29 11:18:59;;;;;;;4.32;2.20;;;29.00;99.60;;;;;;5060659;28;20035;-59
2022/08/29 11:21:35;;;;;;;4.00;2.30;;;28.80;96.10;;;;;;5060047;28;20305;-60
2022/08/29 11:24:02;;;;;;;3.50;2.20;;;29.90;95.50;;;;;;5043284;28;20033;-59
2022/08/29 11:26:31;;;;;;;3.72;2.35;;;30.60;92.60;;;;;;5042778;28;20048;-59
2022/08/29 11:29:03;;;;;;;4.40;2.67;;;30.60;91.10;;;;;;5060184;28;20158;-59
2022/08/29 11:31:42;;;;;;;6.80;2.63;;;30.90;89.60;;;;;;5060148;28;20269;-61
2022/08/29 11:34:20;;;;;;;4.70;2.10;;;30.40;88.20;;;;;;5059955;28;20044;-59
2022/08/29 11:37:16;;;;;;;3.78;2.17;;;29.70;89.10;;;;;;5059994;28;20044;-59
2022/08/29 11:39:56;;;;;;;6.22;2.22;;;29.40;88.70;;;;;;5060189;28;20026;-59
2022/08/29 11:42:27;;;;;;;4.38;2.50;;;30.60;87.90;;;;;;5059944;28;20033;-59
2022/08/29 11:44:56;;;;;;;5.30;2.05;;;31.50;82.80;;;;;;5059797;28;20097;-59
2022/08/29 11:47:44;;;;;;;4.25;2.40;;;30.70;82.40;;;;;;5060458;28;20029;-59
2022/08/29 11:50:16;;;;;;;4.65;2.08;;;31.60;79.90;;;;;;5059751;28;20083;-59
2022/08/29 11:53:05;;;;;;;6.88;2.45;;;32.40;76.60;;;;;;5042383;28;20305;-60
2022/08/29 11:55:35;;;;;;;3.17;2.05;;;32.70;74.40;;;;;;5059764;28;20033;-59
2022/08/29 11:58:12;;;;;;;4.53;2.13;;;32.90;74.50;;;;;;5059777;28;20041;-60
2022/08/29 12:00:43;;;;;;;6.40;2.28;;;33.00;72.50;;;;;;5059599;28;20048;-59
2022/08/29 12:03:37;;;;;;;4.28;2.60;;;34.00;70.00;;;;;;5059557;28;20103;-59
2022/08/29 12:06:22;;;;;;;4.25;2.13;;;35.30;66.70;;;;;;5059427;28;20021;-61
2022/08/29 12:09:09;;;;;;;2.90;2.30;;;35.20;61.70;;;;;;5059391;28;20048;-60
2022/08/29 12:12:11;;;;;;;3.78;1.90;;;34.70;61.10;;;;;;5066788;22;20057;-60
2022/08/29 12:14:46;;;;;;;3.88;2.33;;;32.70;63.90;;;;;;5059013;28;20305;-60
2022/08/29 12:17:41;;;;;;;5.80;2.17;;;32.60;65.20;;;;;;5059360;28;20041;-59
2022/08/29 12:20:10;;;;;;;6.05;2.28;;;34.20;62.60;;;;;;5059427;28;20274;-60
2022/08/29 12:22:48;;;;;;;6.63;2.25;;;32.80;62.40;;;;;;5059117;28;20036;-59
2022/08/29 12:25:29;;;;;;;5.53;2.25;;;32.20;62.40;;;;;;5059167;28;20282;-60
2022/08/29 12:28:00;;;;;;;5.40;2.25;;;32.40;63.50;;;;;;5041773;28;20037;-59
2022/08/29 12:30:42;;;;;;;2.72;2.22;;;31.60;63.30;;;;;;5058987;28;20040;-59
2022/08/29 12:33:24;;;;;;;4.30;2.20;;;32.50;64.00;;;;;;5059058;28;20037;-59
2022/08/29 12:36:24;;;;;;;4.53;2.33;;;33.00;62.10;;;;;;5059208;28;20025;-59
2022/08/29 12:39:14;;;;;;;3.13;2.00;;;34.00;61.90;;;;;;5059195;28;20313;-60
2022/08/29 12:42:02;;;;;;;5.30;2.45;;;35.40;57.50;;;;;;5058851;28;20025;-60
2022/08/29 12:44:36;;;;;;;3.15;2.28;;;34.00;56.50;;;;;;5025208;28;20389;-59
2022/08/29 12:47:09;;;;;;;6.55;2.53;;;35.20;56.80;;;;;;5058680;28;20086;-59
2022/08/29 12:49:52;;;;;;;5.00;2.03;;;34.00;55.70;;;;;;5057662;28;20116;-59
2022/08/29 12:52:29;;;;;;;4.22;2.28;;;32.80;58.70;;;;;;5058594;28;20091;-59
2022/08/29 12:54:58;;;;;;;3.47;2.30;;;33.20;58.90;;;;;;5058469;28;20037;-59
2022/08/29 12:57:35;;;;;;;2.85;1.95;;;34.90;56.70;;;;;;5058746;28;20033;-60
2022/08/29 13:00:12;;;;;;;3.17;2.40;;;36.00;54.30;;;;;;5058505;28;20059;-59
2022/08/29 13:02:40;;;;;;;4.93;2.20;;;36.50;52.40;;;;;;5058278;28;20047;-59
2022/08/29 13:05:28;;;;;;;3.25;2.05;;;36.50;52.70;;;;;;5040859;28;20056;-60
2022/08/29 13:08:06;;;;;;;4.30;1.80;;;36.80;51.50;;;;;;5058456;28;20108;-60
2022/08/29 13:10:34;;;;;;;3.22;1.92;;;37.30;50.20;;;;;;5057841;28;20037;-60